Time;durP1;ratioP1;P1;durP2;ratioP2;P2;SDS_P1;SDS_P2;PMS_P1;PMS_P2;Temp;Humidity;BMP_temperature;BMP_pressure;BME280_temperature;BME280_humidity;BME280_pressure;Samples;Min_cycle;Max_cycle;Signal;HPM_P1;HPM_P2
2022/10/17 00:01:57;;;;;;;;;;;20.60;58.30;;;;;;5035155;28;19909;-74
2022/10/17 00:04:23;;;;;;;;;;;20.60;58.30;;;;;;5017886;28;19910;-74
2022/10/17 00:06:48;;;;;;;;;;;20.60;58.30;;;;;;5035320;28;20258;-74
2022/10/17 00:09:14;;;;;;;;;;;20.50;58.30;;;;;;5048531;28;19909;-74
2022/10/17 00:11:39;;;;;;;;;;;20.50;58.30;;;;;;5020739;28;19920;-74
2022/10/17 00:14:05;;;;;;;;;;;20.50;58.30;;;;;;5037656;28;19916;-74
2022/10/17 00:16:32;;;;;;;;;;;20.60;58.40;;;;;;5037038;28;19912;-74
2022/10/17 00:18:57;;;;;;;;;;;20.50;58.30;;;;;;5037768;28;20316;-74
2022/10/17 00:21:23;;;;;;;;;;;20.60;58.30;;;;;;5055043;28;19909;-74
2022/10/17 00:23:48;;;;;;;;;;;20.60;58.40;;;;;;5020810;28;19920;-74
2022/10/17 00:26:14;;;;;;;;;;;20.50;58.20;;;;;;5054491;28;19962;-74
2022/10/17 00:28:40;;;;;;;;;;;20.50;58.30;;;;;;5037371;28;19916;-74
2022/10/17 00:31:05;;;;;;;;;;;20.50;58.30;;;;;;5036995;28;19999;-74
2022/10/17 00:33:31;;;;;;;;;;;20.50;58.30;;;;;;5054604;28;19989;-75
2022/10/17 00:36:04;;;;;;;;;;;20.50;58.30;;;;;;5033472;28;19916;-74
2022/10/17 00:38:29;;;;;;;;;;;20.50;58.40;;;;;;5024663;28;19909;-74
2022/10/17 00:40:55;;;;;;;;;;;20.40;58.40;;;;;;5054261;28;20265;-74
2022/10/17 00:43:20;;;;;;;;;;;20.40;58.50;;;;;;5054814;28;19932;-74
2022/10/17 00:45:45;;;;;;;;;;;20.40;58.50;;;;;;5054683;28;19909;-73
2022/10/17 00:48:11;;;;;;;;;;;20.40;58.50;;;;;;5036004;28;20062;-74
2022/10/17 00:50:37;;;;;;;;;;;20.40;58.60;;;;;;5036708;28;19920;-74
2022/10/17 00:53:03;;;;;;;;;;;20.40;58.60;;;;;;5020238;28;20330;-74
2022/10/17 00:55:32;;;;;;;;;;;20.40;58.70;;;;;;5036299;28;20043;-73
2022/10/17 00:57:57;;;;;;;;;;;20.40;58.70;;;;;;5054643;28;20488;-74
2022/10/17 01:00:23;;;;;;;;;;;20.40;58.70;;;;;;5036679;28;19935;-74
2022/10/17 01:02:48;;;;;;;;;;;20.30;58.70;;;;;;5036239;28;19912;-74
2022/10/17 01:05:14;;;;;;;;;;;20.30;58.70;;;;;;5019655;28;20034;-74
2022/10/17 01:07:39;;;;;;;;;;;20.30;58.70;;;;;;5035748;28;19915;-74
2022/10/17 01:10:05;;;;;;;;;;;20.30;58.70;;;;;;5036027;28;19909;-74
2022/10/17 01:12:39;;;;;;;;;;;20.30;58.80;;;;;;5036495;28;19909;-74
2022/10/17 01:15:11;;;;;;;;;;;20.30;58.70;;;;;;5036430;28;19931;-74
2022/10/17 01:17:39;;;;;;;;;;;20.40;58.80;;;;;;5053746;28;20391;-74
2022/10/17 01:20:04;;;;;;;;;;;20.40;58.70;;;;;;5036180;28;19913;-74
2022/10/17 01:22:32;;;;;;;;;;;20.40;58.70;;;;;;5053984;28;19955;-73
2022/10/17 01:25:16;;;;;;;;;;;20.40;58.70;;;;;;5035771;28;19962;-74
2022/10/17 01:28:00;;;;;;;;;;;20.30;58.70;;;;;;5053867;28;19909;-73
2022/10/17 01:30:26;;;;;;;;;;;20.30;58.80;;;;;;5053744;28;19960;-74
2022/10/17 01:32:53;;;;;;;;;;;20.30;58.80;;;;;;5053431;28;19960;-74
2022/10/17 01:35:38;;;;;;;;;;;20.30;58.90;;;;;;5035911;28;20407;-74
2022/10/17 01:38:17;;;;;;;;;;;20.30;58.80;;;;;;5035934;28;19915;-74
2022/10/17 01:41:02;;;;;;;;;;;20.30;58.80;;;;;;5035497;28;19913;-74
2022/10/17 01:43:32;;;;;;;;;;;20.40;58.80;;;;;;5053711;28;19909;-74
2022/10/17 01:45:59;;;;;;;;;;;20.30;58.70;;;;;;5035723;28;19908;-74
2022/10/17 01:48:26;;;;;;;;;;;20.40;58.70;;;;;;5035512;28;19912;-74
2022/10/17 01:50:52;;;;;;;;;;;20.40;58.70;;;;;;5053397;28;20394;-74
2022/10/17 01:53:19;;;;;;;;;;;20.40;58.70;;;;;;5035796;28;19909;-74
2022/10/17 01:55:44;;;;;;;;;;;20.40;58.70;;;;;;5035211;28;19909;-74
2022/10/17 01:58:18;;;;;;;;;;;20.40;58.70;;;;;;5032187;28;19917;-73
2022/10/17 02:00:44;;;;;;;;;;;20.40;59.30;;;;;;5032604;28;19910;-75
2022/10/17 02:03:11;;;;;;;;;;;20.40;58.60;;;;;;5015190;28;19959;-74
2022/10/17 02:05:37;;;;;;;;;;;20.40;58.60;;;;;;5033140;28;19921;-74
2022/10/17 02:08:03;;;;;;;;;;;20.40;58.60;;;;;;5019391;28;20391;-74
2022/10/17 02:10:32;;;;;;;;;;;20.40;58.70;;;;;;5018128;28;21829;-74
2022/10/17 02:13:06;;;;;;;;;;;20.30;58.60;;;;;;5053162;28;20100;-75
2022/10/17 02:15:39;;;;;;;;;;;20.30;58.70;;;;;;5035430;28;20419;-74
2022/10/17 02:18:15;;;;;;;;;;;20.30;58.70;;;;;;5052688;28;20281;-74
2022/10/17 02:20:50;;;;;;;;;;;20.30;58.80;;;;;;5052981;28;19915;-75
2022/10/17 02:23:16;;;;;;;;;;;20.30;58.70;;;;;;5035097;28;20009;-74
2022/10/17 02:25:41;;;;;;;;;;;20.30;58.70;;;;;;5052445;28;19963;-74
2022/10/17 02:28:15;;;;;;;;;;;20.30;58.70;;;;;;5052905;28;19917;-74
2022/10/17 02:30:41;;;;;;;;;;;20.30;58.60;;;;;;5035016;28;20395;-74
2022/10/17 02:33:10;;;;;;;;;;;20.40;58.60;;;;;;5052413;28;19909;-74
2022/10/17 02:35:37;;;;;;;;;;;20.30;58.50;;;;;;5009805;28;19952;-74
2022/10/17 02:38:03;;;;;;;;;;;20.40;58.60;;;;;;5018938;28;19909;-74
2022/10/17 02:40:29;;;;;;;;;;;20.40;58.60;;;;;;5052332;28;19913;-74
2022/10/17 02:42:55;;;;;;;;;;;20.40;58.60;;;;;;5034886;28;20280;-74
2022/10/17 02:45:20;;;;;;;;;;;20.40;58.50;;;;;;5034827;28;19912;-74
2022/10/17 02:47:57;;;;;;;;;;;20.40;58.50;;;;;;5017753;28;20258;-75
2022/10/17 02:50:26;;;;;;;;;;;20.40;58.40;;;;;;5034689;28;19919;-74
2022/10/17 02:52:54;;;;;;;;;;;20.40;58.40;;;;;;5052553;28;19908;-74
2022/10/17 02:55:32;;;;;;;;;;;20.40;58.30;;;;;;5034487;28;19967;-74
2022/10/17 02:57:59;;;;;;;;;;;20.40;58.20;;;;;;5034956;28;19909;-73
2022/10/17 03:00:24;;;;;;;;;;;20.50;58.20;;;;;;5052587;28;20410;-74
2022/10/17 03:02:50;;;;;;;;;;;20.50;58.20;;;;;;5034407;28;19908;-74
2022/10/17 03:05:19;;;;;;;;;;;20.50;58.20;;;;;;5052301;28;20376;-74
2022/10/17 03:07:45;;;;;;;;;;;20.50;58.10;;;;;;5033864;28;19920;-74
2022/10/17 03:10:10;;;;;;;;;;;20.50;58.10;;;;;;5051964;28;20296;-74
2022/10/17 03:12:36;;;;;;;;;;;20.50;58.10;;;;;;5037466;28;19916;-74
2022/10/17 03:15:01;;;;;;;;;;;20.50;58.20;;;;;;5038589;28;19909;-74
2022/10/17 03:17:27;;;;;;;;;;;20.50;58.20;;;;;;5055983;28;20308;-74
2022/10/17 03:19:52;;;;;;;;;;;20.40;58.10;;;;;;5038516;28;19913;-74
2022/10/17 03:22:17;;;;;;;;;;;20.50;58.20;;;;;;5038481;28;19916;-75
2022/10/17 03:24:43;;;;;;;;;;;20.40;58.10;;;;;;5055918;28;19912;-74
2022/10/17 03:27:08;;;;;;;;;;;20.40;58.20;;;;;;5038286;28;19912;-74
2022/10/17 03:29:34;;;;;;;;;;;20.40;58.30;;;;;;5038153;28;19916;-74
2022/10/17 03:31:59;;;;;;;;;;;20.40;58.30;;;;;;5055584;28;20269;-75
2022/10/17 03:34:25;;;;;;;;;;;20.40;58.30;;;;;;5021674;28;20279;-74
2022/10/17 03:36:50;;;;;;;;;;;20.40;58.20;;;;;;5055925;28;20355;-74
2022/10/17 03:39:15;;;;;;;;;;;20.40;58.30;;;;;;5037952;28;19908;-74
2022/10/17 03:41:41;;;;;;;;;;;20.40;58.30;;;;;;5038223;28;19909;-75
2022/10/17 03:44:06;;;;;;;;;;;20.40;58.30;;;;;;5037880;28;20055;-74
2022/10/17 03:46:32;;;;;;;;;;;20.30;58.30;;;;;;5037557;28;19920;-74
2022/10/17 03:48:57;;;;;;;;;;;20.30;58.40;;;;;;5038031;28;19938;-75
2022/10/17 03:51:23;;;;;;;;;;;20.30;58.40;;;;;;5055444;28;20434;-75
2022/10/17 03:53:48;;;;;;;;;;;20.30;58.40;;;;;;5055716;28;19920;-75
2022/10/17 03:56:16;;;;;;;;;;;20.30;58.50;;;;;;5055064;28;19909;-74
2022/10/17 03:58:42;;;;;;;;;;;20.30;58.50;;;;;;5039726;28;20324;-74
2022/10/17 04:01:08;;;;;;;;;;;20.30;58.50;;;;;;5017878;28;19917;-75
2022/10/17 04:03:33;;;;;;;;;;;20.30;58.50;;;;;;5035154;28;19993;-74
2022/10/17 04:05:59;;;;;;;;;;;20.30;58.50;;;;;;5014234;28;19921;-74
2022/10/17 04:08:25;;;;;;;;;;;20.30;58.60;;;;;;5021221;28;20374;-75
2022/10/17 04:10:51;;;;;;;;;;;20.20;58.50;;;;;;5033736;28;19925;-75
2022/10/17 04:13:16;;;;;;;;;;;20.20;58.60;;;;;;5035580;28;19916;-75
2022/10/17 04:15:41;;;;;;;;;;;20.20;58.70;;;;;;5034362;28;19909;-74
2022/10/17 04:18:07;;;;;;;;;;;20.20;58.70;;;;;;5034795;28;19909;-75
2022/10/17 04:20:35;;;;;;;;;;;20.20;58.70;;;;;;5033852;28;19909;-75
2022/10/17 04:23:01;;;;;;;;;;;20.20;58.70;;;;;;5034207;28;19910;-74
2022/10/17 04:25:26;;;;;;;;;;;20.20;59.40;;;;;;5033485;28;20015;-75
2022/10/17 04:27:52;;;;;;;;;;;20.10;58.70;;;;;;5035044;28;19966;-75
2022/10/17 04:30:17;;;;;;;;;;;20.20;58.70;;;;;;5034963;28;19913;-75
2022/10/17 04:32:43;;;;;;;;;;;20.20;58.70;;;;;;5016677;28;19909;-74
2022/10/17 04:35:08;;;;;;;;;;;20.20;58.70;;;;;;5028603;28;19932;-74
2022/10/17 04:37:33;;;;;;;;;;;20.20;58.70;;;;;;5013851;28;19909;-74
2022/10/17 04:39:59;;;;;;;;;;;20.20;58.70;;;;;;5034232;28;20384;-75
2022/10/17 04:42:24;;;;;;;;;;;20.20;58.70;;;;;;5034872;28;20387;-74
2022/10/17 04:44:50;;;;;;;;;;;20.20;58.70;;;;;;5034722;28;20383;-74
2022/10/17 04:47:15;;;;;;;;;;;20.20;58.70;;;;;;5034503;28;19909;-74
2022/10/17 04:49:41;;;;;;;;;;;20.20;58.70;;;;;;5033350;28;20000;-75
2022/10/17 04:52:06;;;;;;;;;;;20.20;58.70;;;;;;5034583;28;19913;-75
2022/10/17 04:54:31;;;;;;;;;;;20.20;58.70;;;;;;5034231;28;19909;-75
2022/10/17 04:56:57;;;;;;;;;;;20.20;58.70;;;;;;5034542;28;19909;-75
2022/10/17 04:59:22;;;;;;;;;;;20.20;58.70;;;;;;5033343;28;19909;-75
2022/10/17 05:01:48;;;;;;;;;;;20.10;58.60;;;;;;5034025;28;20002;-75
2022/10/17 05:04:13;;;;;;;;;;;20.20;58.70;;;;;;5034373;28;19909;-75
2022/10/17 05:06:39;;;;;;;;;;;20.10;58.70;;;;;;5034104;28;19921;-75
2022/10/17 05:09:04;;;;;;;;;;;20.10;58.70;;;;;;5034032;28;19917;-75
2022/10/17 05:11:30;;;;;;;;;;;20.10;58.70;;;;;;5032781;28;19952;-75
2022/10/17 05:13:56;;;;;;;;;;;20.10;58.70;;;;;;5034380;28;19959;-75
2022/10/17 05:16:22;;;;;;;;;;;20.20;58.70;;;;;;5033678;28;20291;-74
2022/10/17 05:18:49;;;;;;;;;;;20.10;58.70;;;;;;5033177;28;20008;-75
2022/10/17 05:21:14;;;;;;;;;;;20.20;58.70;;;;;;5032831;28;19993;-75
2022/10/17 05:23:39;;;;;;;;;;;20.10;58.70;;;;;;5016335;28;19910;-75
2022/10/17 05:26:05;;;;;;;;;;;20.20;58.70;;;;;;5017702;28;19961;-75
2022/10/17 05:28:30;;;;;;;;;;;20.20;58.70;;;;;;5012967;28;19916;-75
2022/10/17 05:30:56;;;;;;;;;;;20.20;58.70;;;;;;5013790;28;19913;-74
2022/10/17 05:33:21;;;;;;;;;;;20.10;58.50;;;;;;5012276;28;19999;-74
2022/10/17 05:35:47;;;;;;;;;;;20.20;58.60;;;;;;5012515;28;19909;-75
2022/10/17 05:38:12;;;;;;;;;;;20.20;58.70;;;;;;5017823;28;19916;-75
2022/10/17 05:40:38;;;;;;;;;;;20.20;58.60;;;;;;5033244;28;19909;-75
2022/10/17 05:43:03;;;;;;;;;;;20.20;58.60;;;;;;5033691;28;19958;-75
2022/10/17 05:45:29;;;;;;;;;;;20.10;58.50;;;;;;5032656;28;19913;-74
2022/10/17 05:47:54;;;;;;;;;;;20.20;58.50;;;;;;5033083;28;20000;-75
2022/10/17 05:50:20;;;;;;;;;;;20.20;58.40;;;;;;5032189;28;20361;-75
2022/10/17 05:52:46;;;;;;;;;;;20.30;58.40;;;;;;5033259;28;20361;-74
2022/10/17 05:55:11;;;;;;;;;;;20.20;58.30;;;;;;5033007;28;19916;-74
2022/10/17 05:57:37;;;;;;;;;;;20.20;58.40;;;;;;5026436;28;20391;-74
2022/10/17 06:00:03;;;;;;;;;;;20.20;58.40;;;;;;5013634;28;20313;-74
2022/10/17 06:02:29;;;;;;;;;;;20.20;58.50;;;;;;5013260;28;19960;-74
2022/10/17 06:04:54;;;;;;;;;;;20.20;58.40;;;;;;5012283;28;19917;-75
2022/10/17 06:07:20;;;;;;;;;;;20.20;58.40;;;;;;5013564;28;19924;-74
2022/10/17 06:09:45;;;;;;;;;;;20.20;58.30;;;;;;5029607;28;20001;-74
2022/10/17 06:12:11;;;;;;;;;;;20.30;58.40;;;;;;5031765;28;19924;-74
2022/10/17 06:14:36;;;;;;;;;;;20.30;58.40;;;;;;5032952;28;20388;-74
2022/10/17 06:17:01;;;;;;;;;;;20.20;58.30;;;;;;5032638;28;19959;-74
2022/10/17 06:19:27;;;;;;;;;;;20.20;58.30;;;;;;5033024;28;19909;-74
2022/10/17 06:21:52;;;;;;;;;;;20.20;58.30;;;;;;5033035;28;19932;-74
2022/10/17 06:24:18;;;;;;;;;;;20.20;58.30;;;;;;5031465;28;20001;-75
2022/10/17 06:26:43;;;;;;;;;;;20.20;58.40;;;;;;5031981;28;19916;-74
2022/10/17 06:29:09;;;;;;;;;;;20.20;58.40;;;;;;5032871;28;19978;-75
2022/10/17 06:31:34;;;;;;;;;;;20.20;58.40;;;;;;5031186;28;19913;-74
2022/10/17 06:34:00;;;;;;;;;;;20.20;58.40;;;;;;5033104;28;19909;-74
2022/10/17 06:36:25;;;;;;;;;;;20.20;58.40;;;;;;4999320;28;19937;-74
2022/10/17 06:38:50;;;;;;;;;;;20.10;58.40;;;;;;5023389;28;20364;-74
2022/10/17 06:41:18;;;;;;;;;;;20.20;58.50;;;;;;5032374;28;20357;-74
2022/10/17 06:43:46;;;;;;;;;;;20.20;58.40;;;;;;5031603;28;19914;-74
2022/10/17 06:46:12;;;;;;;;;;;20.20;58.40;;;;;;5031746;28;19940;-74
2022/10/17 06:48:38;;;;;;;;;;;20.20;58.40;;;;;;5032609;28;19957;-75
2022/10/17 06:51:03;;;;;;;;;;;20.20;58.40;;;;;;5014909;28;19913;-74
2022/10/17 06:53:29;;;;;;;;;;;20.20;58.40;;;;;;5031387;28;19959;-75
2022/10/17 06:56:00;;;;;;;;;;;20.10;58.40;;;;;;5030912;28;19909;-74
2022/10/17 06:58:26;;;;;;;;;;;20.10;58.40;;;;;;5039399;28;20335;-74
2022/10/17 07:00:51;;;;;;;;;;;20.10;59.10;;;;;;5032525;28;20282;-73
2022/10/17 07:03:17;;;;;;;;;;;20.10;58.50;;;;;;5032273;28;19988;-75
2022/10/17 07:05:42;;;;;;;;;;;20.10;58.50;;;;;;5030988;28;19917;-74
2022/10/17 07:08:08;;;;;;;;;;;20.10;58.50;;;;;;5031171;28;20365;-74
2022/10/17 07:10:37;;;;;;;;;;;20.10;58.50;;;;;;5030824;28;19917;-75
2022/10/17 07:13:02;;;;;;;;;;;20.10;58.60;;;;;;5015531;28;19916;-75
2022/10/17 07:15:28;;;;;;;;;;;20.10;58.50;;;;;;5031355;28;19910;-74
2022/10/17 07:17:53;;;;;;;;;;;20.10;58.50;;;;;;5030670;28;19933;-75
2022/10/17 07:20:19;;;;;;;;;;;20.10;58.50;;;;;;5031078;28;19913;-75
2022/10/17 07:22:44;;;;;;;;;;;20.10;58.50;;;;;;5031030;28;19956;-75
2022/10/17 07:25:10;;;;;;;;;;;20.10;58.50;;;;;;5020995;28;19909;-75
2022/10/17 07:27:35;;;;;;;;;;;20.20;58.40;;;;;;5011248;28;19909;-75
2022/10/17 07:30:00;;;;;;;;;;;20.20;58.70;;;;;;5012528;28;20005;-75
2022/10/17 07:32:26;;;;;;;;;;;20.20;58.40;;;;;;5012280;28;20377;-75
2022/10/17 07:34:51;;;;;;;;;;;20.20;58.40;;;;;;5012565;28;19932;-75
2022/10/17 07:37:17;;;;;;;;;;;20.20;58.40;;;;;;5011321;28;19957;-75
2022/10/17 07:39:42;;;;;;;;;;;20.20;58.30;;;;;;5028179;28;19909;-75
2022/10/17 07:42:08;;;;;;;;;;;20.20;58.50;;;;;;5032625;28;19924;-75
2022/10/17 07:44:34;;;;;;;;;;;20.20;58.50;;;;;;5032200;28;20008;-75
2022/10/17 07:46:59;;;;;;;;;;;20.20;58.50;;;;;;5031781;28;19982;-75
2022/10/17 07:49:25;;;;;;;;;;;20.20;58.50;;;;;;5032305;28;19913;-75
2022/10/17 07:51:50;;;;;;;;;;;20.20;58.50;;;;;;5032067;28;19956;-75
2022/10/17 07:54:16;;;;;;;;;;;20.20;58.60;;;;;;5031764;28;19913;-75
2022/10/17 07:56:41;;;;;;;;;;;20.20;58.70;;;;;;5032084;28;20171;-75
2022/10/17 07:59:07;;;;;;;;;;;20.10;58.70;;;;;;5012868;28;19971;-75
2022/10/17 08:01:32;;;;;;;;;;;20.10;58.70;;;;;;5015520;28;20349;-75
2022/10/17 08:03:58;;;;;;;;;;;20.20;58.70;;;;;;5015775;28;20328;-75
2022/10/17 08:06:23;;;;;;;;;;;20.20;58.70;;;;;;5031675;28;20320;-75
2022/10/17 08:08:48;;;;;;;;;;;20.20;58.70;;;;;;5037771;28;20101;-75
2022/10/17 08:11:14;;;;;;;;;;;20.20;58.70;;;;;;5054752;28;19934;-75
2022/10/17 08:13:39;;;;;;;;;;;20.20;58.80;;;;;;5055305;28;19917;-75
2022/10/17 08:16:06;;;;;;;;;;;20.20;58.80;;;;;;5037424;28;20376;-75
2022/10/17 08:18:31;;;;;;;;;;;20.20;58.80;;;;;;5036723;28;19944;-75
2022/10/17 08:21:05;;;;;;;;;;;20.10;58.80;;;;;;5054922;28;19955;-75
2022/10/17 08:23:30;;;;;;;;;;;20.10;59.00;;;;;;5037598;28;19952;-75
2022/10/17 08:25:59;;;;;;;;;;;20.10;59.10;;;;;;5036796;28;20199;-75
2022/10/17 08:28:25;;;;;;;;;;;20.10;59.70;;;;;;5037256;28;19909;-75
2022/10/17 08:30:50;;;;;;;;;;;20.10;58.90;;;;;;5037079;28;19913;-75
2022/10/17 08:33:16;;;;;;;;;;;20.10;59.00;;;;;;5036707;28;20361;-75
2022/10/17 08:35:41;;;;;;;;;;;20.20;59.00;;;;;;5036911;28;20332;-75
2022/10/17 08:38:07;;;;;;;;;;;20.20;58.90;;;;;;5054739;28;19916;-75
2022/10/17 08:40:32;;;;;;;;;;;20.10;59.00;;;;;;5036619;28;19909;-75
2022/10/17 08:43:01;;;;;;;;;;;20.20;59.00;;;;;;5054732;28;19911;-75
2022/10/17 08:45:34;;;;;;;;;;;20.10;59.00;;;;;;5054630;28;19909;-75
2022/10/17 08:48:00;;;;;;;;;;;20.10;59.00;;;;;;5032969;28;19913;-74
2022/10/17 08:50:29;;;;;;;;;;;20.10;59.20;;;;;;5017018;28;20373;-75
2022/10/17 08:52:56;;;;;;;;;;;20.10;59.30;;;;;;5034460;28;19913;-75
2022/10/17 08:55:29;;;;;;;;;;;20.10;59.20;;;;;;5034139;28;19909;-75
2022/10/17 08:57:54;;;;;;;;;;;20.10;59.20;;;;;;5016680;28;20028;-74
2022/10/17 09:00:20;;;;;;;;;;;20.20;59.20;;;;;;5034549;28;20349;-74
2022/10/17 09:03:07;;;;;;;;;;;20.20;59.10;;;;;;5033944;28;19909;-75
2022/10/17 09:05:35;;;;;;;;;;;20.20;59.20;;;;;;5034187;28;20396;-75
2022/10/17 09:08:07;;;;;;;;;;;20.20;59.00;;;;;;5019934;28;20359;-74
2022/10/17 09:10:36;;;;;;;;;;;20.30;59.00;;;;;;5035256;28;19917;-74
2022/10/17 09:13:05;;;;;;;;;;;20.30;59.00;;;;;;5036497;28;19931;-74
2022/10/17 09:15:37;;;;;;;;;;;20.30;59.10;;;;;;5054015;28;19955;-75
2022/10/17 09:18:14;;;;;;;;;;;20.30;59.00;;;;;;5035857;28;19958;-75
2022/10/17 09:20:41;;;;;;;;;;;20.30;58.90;;;;;;5053952;28;19913;-75
2022/10/17 09:23:17;;;;;;;;;;;20.30;59.00;;;;;;5019522;28;19958;-75
2022/10/17 09:25:43;;;;;;;;;;;20.40;59.00;;;;;;5037896;28;19909;-75
2022/10/17 09:28:08;;;;;;;;;;;20.40;59.00;;;;;;5016082;28;19962;-75
2022/10/17 09:30:39;;;;;;;;;;;20.30;59.30;;;;;;5033799;28;20004;-75
2022/10/17 09:33:14;;;;;;;;;;;20.20;59.40;;;;;;5015932;28;20469;-74
2022/10/17 09:35:40;;;;;;;;;;;20.10;59.40;;;;;;5032380;28;20100;-75
2022/10/17 09:38:08;;;;;;;;;;;20.20;59.50;;;;;;5020455;28;19909;-74
2022/10/17 09:40:34;;;;;;;;;;;20.20;59.50;;;;;;5035492;28;19909;-74
2022/10/17 09:43:04;;;;;;;;;;;20.20;60.00;;;;;;5036017;28;20265;-74
2022/10/17 09:45:32;;;;;;;;;;;20.30;59.40;;;;;;5018733;28;19954;-74
2022/10/17 09:47:57;;;;;;;;;;;20.30;59.40;;;;;;5035797;28;20272;-74
2022/10/17 09:50:27;;;;;;;;;;;20.30;59.50;;;;;;5053241;28;19909;-74
2022/10/17 09:52:52;;;;;;;;;;;20.30;59.50;;;;;;5035516;28;19909;-74
2022/10/17 09:55:18;;;;;;;;;;;20.30;59.50;;;;;;5035095;28;19909;-75
2022/10/17 09:57:50;;;;;;;;;;;20.30;59.50;;;;;;5045545;28;19989;-75
2022/10/17 10:00:20;;;;;;;;;;;20.30;59.60;;;;;;5015685;28;19916;-75
2022/10/17 10:02:45;;;;;;;;;;;20.20;59.60;;;;;;5015268;28;19909;-75
2022/10/17 10:05:17;;;;;;;;;;;20.30;59.70;;;;;;5033006;28;20425;-75
2022/10/17 10:07:45;;;;;;;;;;;20.30;59.60;;;;;;5016615;28;19909;-75
2022/10/17 10:10:23;;;;;;;;;;;20.30;59.70;;;;;;5034823;28;20279;-75
2022/10/17 10:13:02;;;;;;;;;;;20.30;59.60;;;;;;5035132;28;19909;-74
2022/10/17 10:15:32;;;;;;;;;;;20.30;59.60;;;;;;5053041;28;19909;-74
2022/10/17 10:17:57;;;;;;;;;;;20.40;59.70;;;;;;5034884;28;19913;-74
2022/10/17 10:20:27;;;;;;;;;;;20.30;59.80;;;;;;5034581;28;19909;-75
2022/10/17 10:23:06;;;;;;;;;;;20.30;59.80;;;;;;5034606;28;19909;-74
2022/10/17 10:25:32;;;;;;;;;;;20.30;59.80;;;;;;5034671;28;20284;-75
2022/10/17 10:27:57;;;;;;;;;;;20.20;60.00;;;;;;5035048;28;19917;-74
2022/10/17 10:30:24;;;;;;;;;;;20.20;60.00;;;;;;5034945;28;19909;-75
2022/10/17 10:32:50;;;;;;;;;;;20.30;60.00;;;;;;5052283;28;19920;-75
2022/10/17 10:35:15;;;;;;;;;;;20.30;60.00;;;;;;5035003;28;19909;-75
2022/10/17 10:37:42;;;;;;;;;;;20.30;60.10;;;;;;5052652;28;19909;-75
2022/10/17 10:40:14;;;;;;;;;;;20.30;60.10;;;;;;5034557;28;20281;-75
2022/10/17 10:42:39;;;;;;;;;;;20.40;60.10;;;;;;5052564;28;19909;-75
2022/10/17 10:45:14;;;;;;;;;;;20.30;60.00;;;;;;5034825;28;19932;-74
2022/10/17 10:47:39;;;;;;;;;;;20.30;60.10;;;;;;5040827;28;19909;-74
2022/10/17 10:50:06;;;;;;;;;;;20.40;60.00;;;;;;5001964;28;19916;-75
2022/10/17 10:52:36;;;;;;;;;;;20.40;60.00;;;;;;5032533;28;19913;-75
2022/10/17 10:55:03;;;;;;;;;;;20.40;60.00;;;;;;5014592;28;19909;-74
2022/10/17 10:57:29;;;;;;;;;;;20.40;60.00;;;;;;5015093;28;19992;-75
2022/10/17 10:59:57;;;;;;;;;;;20.40;60.20;;;;;;5014943;28;20015;-75
2022/10/17 11:02:27;;;;;;;;;;;20.40;60.20;;;;;;5014590;28;19909;-74
2022/10/17 11:05:11;;;;;;;;;;;20.30;60.20;;;;;;5032242;28;20369;-74
2022/10/17 11:07:46;;;;;;;;;;;20.40;60.30;;;;;;5032743;28;19917;-74
2022/10/17 11:10:20;;;;;;;;;;;20.40;60.20;;;;;;5034070;28;19909;-74
2022/10/17 11:13:04;;;;;;;;;;;20.30;60.20;;;;;;5034458;28;19930;-74
2022/10/17 11:15:33;;;;;;;;;;;20.30;60.20;;;;;;5052301;28;20265;-75
2022/10/17 11:17:59;;;;;;;;;;;20.30;60.30;;;;;;5017800;28;19909;-75
2022/10/17 11:20:45;;;;;;;;;;;20.30;60.40;;;;;;5034621;28;19916;-74
2022/10/17 11:23:18;;;;;;;;;;;20.30;60.50;;;;;;5021157;28;20284;-74
2022/10/17 11:25:44;;;;;;;;;;;20.30;60.50;;;;;;5037238;28;19909;-74
2022/10/17 11:28:14;;;;;;;;;;;20.30;60.60;;;;;;4998179;28;20395;-74
2022/10/17 11:30:48;;;;;;;;;;;20.40;60.50;;;;;;5014480;28;20008;-74
2022/10/17 11:33:17;;;;;;;;;;;20.40;60.60;;;;;;5016549;28;19909;-75
2022/10/17 11:35:43;;;;;;;;;;;20.40;60.60;;;;;;5035938;28;19909;-74
2022/10/17 11:38:11;;;;;;;;;;;20.40;60.60;;;;;;5040610;28;19913;-74
2022/10/17 11:40:37;;;;;;;;;;;20.40;60.60;;;;;;5055370;28;20291;-74
2022/10/17 11:43:13;;;;;;;;;;;20.30;60.80;;;;;;5037978;28;19996;-74
2022/10/17 11:45:41;;;;;;;;;;;20.30;60.80;;;;;;5021530;28;19948;-74
2022/10/17 11:48:11;;;;;;;;;;;20.30;60.70;;;;;;5037389;28;19955;-74
2022/10/17 11:50:37;;;;;;;;;;;20.40;60.70;;;;;;5037922;28;20300;-75
2022/10/17 11:53:02;;;;;;;;;;;20.40;60.80;;;;;;5037984;28;19908;-74
2022/10/17 11:55:29;;;;;;;;;;;20.40;60.80;;;;;;5055158;28;19916;-75
2022/10/17 11:58:17;;;;;;;;;;;20.40;60.70;;;;;;5011997;28;19916;-75
2022/10/17 12:00:55;;;;;;;;;;;20.40;60.60;;;;;;5016415;28;19913;-75
2022/10/17 12:03:39;;;;;;;;;;;20.50;60.70;;;;;;5017346;28;19909;-74
2022/10/17 12:06:08;;;;;;;;;;;20.40;61.00;;;;;;5035357;28;19917;-74
2022/10/17 12:08:38;;;;;;;;;;;20.30;61.20;;;;;;5043843;28;19952;-74
2022/10/17 12:11:18;;;;;;;;;;;20.20;61.60;;;;;;5054964;28;19921;-74
2022/10/17 12:13:44;;;;;;;;;;;20.20;61.70;;;;;;5055428;28;19916;-74
2022/10/17 12:16:19;;;;;;;;;;;20.20;61.90;;;;;;5055085;28;19913;-74
2022/10/17 12:18:44;;;;;;;;;;;20.20;62.00;;;;;;5055415;28;19959;-74
2022/10/17 12:21:10;;;;;;;;;;;20.20;61.90;;;;;;5055170;28;20342;-74
2022/10/17 12:23:37;;;;;;;;;;;20.30;61.90;;;;;;5037455;28;19913;-74
2022/10/17 12:26:04;;;;;;;;;;;20.40;61.70;;;;;;5054692;28;19916;-74
2022/10/17 12:28:50;;;;;;;;;;;20.40;61.40;;;;;;5037459;28;19916;-74
2022/10/17 12:31:16;;;;;;;;;;;20.40;61.30;;;;;;5054201;28;20296;-74
2022/10/17 12:33:44;;;;;;;;;;;20.40;61.40;;;;;;5055109;28;19909;-74
2022/10/17 12:36:30;;;;;;;;;;;20.40;61.40;;;;;;5054801;28;20339;-74
2022/10/17 12:39:01;;;;;;;;;;;20.40;61.50;;;;;;5043969;28;19908;-75
2022/10/17 12:41:39;;;;;;;;;;;20.40;61.60;;;;;;5054612;28;19909;-74
2022/10/17 12:44:14;;;;;;;;;;;20.40;61.60;;;;;;5054061;28;19996;-74
2022/10/17 12:46:45;;;;;;;;;;;20.40;61.50;;;;;;5048881;28;19952;-74
2022/10/17 12:49:20;;;;;;;;;;;20.40;61.60;;;;;;5034628;28;20000;-74
2022/10/17 12:52:03;;;;;;;;;;;20.40;61.60;;;;;;5034608;28;19999;-74
2022/10/17 12:54:28;;;;;;;;;;;20.50;61.80;;;;;;5016590;28;19959;-74
2022/10/17 12:56:54;;;;;;;;;;;20.40;61.70;;;;;;5016733;28;19913;-74
2022/10/17 12:59:21;;;;;;;;;;;20.40;61.90;;;;;;5034419;28;19917;-74
2022/10/17 13:01:47;;;;;;;;;;;20.40;62.00;;;;;;4999937;28;19909;-74
2022/10/17 13:04:12;;;;;;;;;;;20.40;61.90;;;;;;5034324;28;19962;-74
2022/10/17 13:06:47;;;;;;;;;;;20.40;62.00;;;;;;5013284;28;20003;-74
2022/10/17 13:09:17;;;;;;;;;;;20.40;62.00;;;;;;5027577;28;20262;-74
2022/10/17 13:11:43;;;;;;;;;;;20.50;62.20;;;;;;5016363;28;19917;-74
2022/10/17 13:14:12;;;;;;;;;;;20.50;61.90;;;;;;5034336;28;19913;-74
2022/10/17 13:16:38;;;;;;;;;;;20.50;61.90;;;;;;5032551;28;19915;-74
2022/10/17 13:19:11;;;;;;;;;;;20.50;62.00;;;;;;5032886;28;19957;-74
2022/10/17 13:21:37;;;;;;;;;;;20.50;62.40;;;;;;5032955;28;19932;-74
2022/10/17 13:24:21;;;;;;;;;;;20.50;62.30;;;;;;5032423;28;19909;-74
2022/10/17 13:26:46;;;;;;;;;;;20.50;62.30;;;;;;5013118;28;19913;-74
2022/10/17 13:29:13;;;;;;;;;;;20.50;62.50;;;;;;5014261;28;20443;-74
2022/10/17 13:31:42;;;;;;;;;;;20.50;62.20;;;;;;5012480;28;20115;-74
2022/10/17 13:34:14;;;;;;;;;;;20.50;62.20;;;;;;5014118;28;20008;-74
2022/10/17 13:36:40;;;;;;;;;;;20.50;62.50;;;;;;5012819;28;19918;-74
2022/10/17 13:39:06;;;;;;;;;;;20.40;62.50;;;;;;5026227;28;19916;-74
2022/10/17 13:41:33;;;;;;;;;;;20.50;62.50;;;;;;5015959;28;19967;-74
2022/10/17 13:43:59;;;;;;;;;;;20.50;62.50;;;;;;5032533;28;20428;-74
2022/10/17 13:46:27;;;;;;;;;;;20.50;62.40;;;;;;5031911;28;19909;-73
2022/10/17 13:48:52;;;;;;;;;;;20.50;62.30;;;;;;5033832;28;19948;-74
2022/10/17 13:51:18;;;;;;;;;;;20.50;62.50;;;;;;5033416;28;19913;-74
2022/10/17 13:53:43;;;;;;;;;;;20.50;62.40;;;;;;5033590;28;19909;-74
2022/10/17 13:56:09;;;;;;;;;;;20.50;62.60;;;;;;5032927;28;19999;-74
2022/10/17 13:58:44;;;;;;;;;;;20.50;62.70;;;;;;5033545;28;19970;-74
2022/10/17 14:01:10;;;;;;;;;;;20.60;62.50;;;;;;5033334;28;19909;-74
2022/10/17 14:03:38;;;;;;;;;;;20.50;62.80;;;;;;5033494;28;20417;-73
2022/10/17 14:06:03;;;;;;;;;;;20.60;62.80;;;;;;5033268;28;19918;-74
2022/10/17 14:08:29;;;;;;;;;;;20.60;62.60;;;;;;5033258;28;19916;-74
2022/10/17 14:10:54;;;;;;;;;;;20.60;62.60;;;;;;5032955;28;20008;-74
2022/10/17 14:13:21;;;;;;;;;;;20.60;62.70;;;;;;5031296;28;20372;-74
2022/10/17 14:15:46;;;;;;;;;;;20.60;62.60;;;;;;5012206;28;19916;-74
2022/10/17 14:18:25;;;;;;;;;;;20.60;62.60;;;;;;5011887;28;19913;-74
2022/10/17 14:20:51;;;;;;;;;;;20.60;62.50;;;;;;5013375;28;20262;-74